createdAt,value
2022-07-30T00:00:26.001Z,101467.13
2022-07-30T00:02:53.936Z,101461.84
2022-07-30T00:05:23.225Z,101466.09
2022-07-30T00:07:51.208Z,101466.97
2022-07-30T00:10:20.700Z,101467.91
2022-07-30T00:12:48.991Z,101460.31
2022-07-30T00:15:16.952Z,101455.81
2022-07-30T00:17:46.750Z,101454.56
2022-07-30T00:20:17.160Z,101458.69
2022-07-30T00:22:48.026Z,101451.31
2022-07-30T00:25:16.166Z,101452.03
2022-07-30T00:27:44.435Z,101442.75
2022-07-30T00:30:13.583Z,101444.41
2022-07-30T00:32:41.706Z,101440.22
2022-07-30T00:35:10.689Z,101438.59
2022-07-30T00:37:38.607Z,101439.13
2022-07-30T00:40:09.812Z,101436.19
2022-07-30T00:42:42.073Z,101421.28
2022-07-30T00:45:11.014Z,101423.47
2022-07-30T00:47:39.362Z,101423.63
2022-07-30T00:50:09.986Z,101416.22
2022-07-30T00:52:39.138Z,101419.63
2022-07-30T00:55:10.512Z,101413.25
2022-07-30T00:57:39.332Z,101412.44
2022-07-30T01:00:09.613Z,101416.16
2022-07-30T01:02:37.702Z,101407.72
2022-07-30T01:05:06.563Z,101417.88
2022-07-30T01:07:34.821Z,101416.69
2022-07-30T01:10:02.792Z,101421.81
2022-07-30T01:12:33.041Z,101411.72
2022-07-30T01:15:03.547Z,101408.06
2022-07-30T01:17:31.518Z,101400.91
2022-07-30T01:20:05.703Z,101394.53
2022-07-30T01:22:43.316Z,101392.75
2022-07-30T01:25:17.590Z,101387.06
2022-07-30T01:27:50.422Z,101392.56
2022-07-30T01:30:25.917Z,101386.44
2022-07-30T01:32:55.321Z,101388.94
2022-07-30T01:35:25.189Z,101386.97
2022-07-30T01:37:53.799Z,101387.72
2022-07-30T01:40:22.412Z,101387.09
2022-07-30T01:42:54.918Z,101381.19
2022-07-30T01:45:23.915Z,101379.34
2022-07-30T01:47:53.834Z,101378.69
2022-07-30T01:50:23.120Z,101376.97
2022-07-30T01:52:53.448Z,101375.94
2022-07-30T01:55:25.331Z,101373.59
2022-07-30T01:57:55.548Z,101371.41
2022-07-30T02:00:24.591Z,101372.63
2022-07-30T02:02:52.684Z,101379.31
2022-07-30T02:05:20.601Z,101376.88
2022-07-30T02:07:53.641Z,101371.47
2022-07-30T02:10:27.491Z,101369.81
2022-07-30T02:12:58.095Z,101365.91
2022-07-30T02:15:30.490Z,101366.56
2022-07-30T02:18:09.531Z,101369.22
2022-07-30T02:20:38.685Z,101367.28
2022-07-30T02:23:08.906Z,101377.63
2022-07-30T02:25:37.641Z,101373.53
2022-07-30T02:28:10.330Z,101371.41
2022-07-30T02:30:42.441Z,101364.53
2022-07-30T02:33:12.851Z,101370.00
2022-07-30T02:35:42.008Z,101365.72
2022-07-30T02:38:11.026Z,101362.69
2022-07-30T02:40:42.238Z,101364.69
2022-07-30T02:43:12.532Z,101354.72
2022-07-30T02:45:40.789Z,101359.88
2022-07-30T02:48:10.466Z,101354.88
2022-07-30T02:50:38.698Z,101360.03
2022-07-30T02:53:10.253Z,101355.38
2022-07-30T02:55:39.882Z,101360.38
2022-07-30T02:58:08.383Z,101362.66
2022-07-30T03:00:38.382Z,101372.75
2022-07-30T03:03:07.297Z,101369.03
2022-07-30T03:05:35.858Z,101370.44
2022-07-30T03:08:04.108Z,101366.81
2022-07-30T03:10:33.111Z,101372.81
2022-07-30T03:13:01.937Z,101365.63
2022-07-30T03:15:30.255Z,101375.06
2022-07-30T03:18:00.059Z,101372.66
2022-07-30T03:20:29.854Z,101374.53
2022-07-30T03:22:59.975Z,101372.09
2022-07-30T03:25:28.885Z,101368.88
2022-07-30T03:27:59.319Z,101370.09
2022-07-30T03:30:27.906Z,101370.44
2022-07-30T03:32:57.087Z,101377.03
2022-07-30T03:35:26.878Z,101376.88
2022-07-30T03:38:00.282Z,101370.50
2022-07-30T03:40:28.819Z,101373.38
2022-07-30T03:42:56.905Z,101372.69
2022-07-30T03:45:25.106Z,101370.50
2022-07-30T03:47:53.394Z,101368.97
2022-07-30T03:50:21.357Z,101361.22
2022-07-30T03:52:50.755Z,101368.78
2022-07-30T03:55:18.889Z,101362.06
2022-07-30T03:57:46.837Z,101365.44
2022-07-30T04:00:16.070Z,101357.34
2022-07-30T04:02:44.670Z,101357.28
2022-07-30T04:05:13.234Z,101357.31
2022-07-30T04:07:44.860Z,101361.28
2022-07-30T04:10:15.116Z,101355.94
2022-07-30T04:12:43.393Z,101362.34
2022-07-30T04:16:37.260Z,101364.06
2022-07-30T04:18:03.165Z,101368.22
2022-07-30T04:20:36.047Z,101373.84
2022-07-30T04:23:04.310Z,101365.06
2022-07-30T04:25:34.546Z,101362.63
2022-07-30T04:28:03.826Z,101364.34
2022-07-30T04:30:33.381Z,101361.94
2022-07-30T04:33:01.410Z,101356.13
2022-07-30T04:35:51.668Z,101364.50
2022-07-30T04:38:17.723Z,101364.72
2022-07-30T04:40:47.126Z,101363.19
2022-07-30T04:43:15.087Z,101364.91
2022-07-30T04:45:43.358Z,101371.78
2022-07-30T04:48:11.342Z,101360.47
2022-07-30T04:50:42.915Z,101372.28
2022-07-30T04:53:11.251Z,101363.72
2022-07-30T04:55:41.637Z,101367.50
2022-07-30T04:58:12.392Z,101366.13
2022-07-30T05:00:41.708Z,101372.09
2022-07-30T05:03:10.647Z,101372.38
2022-07-30T05:05:39.061Z,101380.09
2022-07-30T05:08:07.139Z,101377.53
2022-07-30T05:10:35.109Z,101377.38
2022-07-30T05:13:03.037Z,101375.50
2022-07-30T05:15:36.288Z,101377.41
2022-07-30T05:18:05.618Z,101372.81
2022-07-30T05:20:33.605Z,101383.81
2022-07-30T05:23:01.663Z,101392.19
2022-07-30T05:25:29.585Z,101397.47
2022-07-30T05:27:58.287Z,101387.66
2022-07-30T05:30:27.807Z,101381.84
2022-07-30T05:32:57.221Z,101379.31
2022-07-30T05:35:25.609Z,101385.88
2022-07-30T05:37:53.569Z,101388.97
2022-07-30T05:40:22.186Z,101391.00
2022-07-30T05:42:50.110Z,101395.38
2022-07-30T05:45:18.083Z,101391.34
2022-07-30T05:47:46.062Z,101404.41
2022-07-30T05:50:15.466Z,101400.72
2022-07-30T05:52:43.677Z,101403.91
2022-07-30T05:55:12.140Z,101419.13
2022-07-30T05:57:42.251Z,101412.44
2022-07-30T06:00:12.290Z,101417.91
2022-07-30T06:02:40.780Z,101421.09
2022-07-30T06:05:09.935Z,101404.31
2022-07-30T06:07:39.246Z,101416.09
2022-07-30T06:10:07.983Z,101411.00
2022-07-30T06:12:35.969Z,101413.59
2022-07-30T06:15:04.115Z,101418.81
2022-07-30T06:17:32.037Z,101418.81
2022-07-30T06:20:10.645Z,101410.91
2022-07-30T06:22:40.263Z,101408.00
2022-07-30T06:25:09.229Z,101404.38
2022-07-30T06:27:39.790Z,101415.19
2022-07-30T06:30:09.978Z,101412.97
2022-07-30T06:32:37.898Z,101412.81
2022-07-30T06:35:06.551Z,101422.38
2022-07-30T06:37:57.724Z,101429.06
2022-07-30T06:40:24.040Z,101431.47
2022-07-30T06:42:52.006Z,101426.31
2022-07-30T06:45:20.039Z,101435.25
2022-07-30T06:47:48.005Z,101426.69
2022-07-30T06:50:15.923Z,101435.09
2022-07-30T06:52:43.858Z,101427.19
2022-07-30T06:55:11.842Z,101427.72
2022-07-30T06:57:42.611Z,101427.53
2022-07-30T07:00:11.759Z,101424.59
2022-07-30T07:02:39.867Z,101432.81
2022-07-30T07:05:08.753Z,101438.16
2022-07-30T07:07:42.982Z,101440.06
2022-07-30T07:10:12.972Z,101430.28
2022-07-30T07:12:42.298Z,101431.16
2022-07-30T07:15:10.946Z,101425.31
2022-07-30T07:17:40.409Z,101432.69
2022-07-30T07:20:09.118Z,101429.59
2022-07-30T07:22:37.057Z,101434.72
2022-07-30T07:25:05.716Z,101435.00
2022-07-30T07:27:33.661Z,101436.19
2022-07-30T07:30:05.290Z,101440.34
2022-07-30T07:32:34.344Z,101438.13
2022-07-30T07:35:02.580Z,101446.03
2022-07-30T07:37:30.614Z,101433.50
2022-07-30T07:39:58.567Z,101446.91
2022-07-30T07:42:26.482Z,101443.13
2022-07-30T07:44:54.516Z,101445.88
2022-07-30T07:47:23.806Z,101442.56
2022-07-30T07:49:51.809Z,101442.22
2022-07-30T07:52:19.967Z,101436.06
2022-07-30T07:54:47.954Z,101445.38
2022-07-30T07:57:15.873Z,101442.56
2022-07-30T07:59:43.782Z,101443.31
2022-07-30T08:02:11.797Z,101445.88
2022-07-30T08:04:41.123Z,101449.50
2022-07-30T08:07:09.083Z,101442.03
2022-07-30T08:09:43.816Z,101441.94
2022-07-30T08:12:13.153Z,101442.47
2022-07-30T08:14:41.114Z,101449.03
2022-07-30T08:17:09.559Z,101450.00
2022-07-30T08:19:37.676Z,101443.72
2022-07-30T08:22:07.049Z,101457.25
2022-07-30T08:24:35.006Z,101443.44
2022-07-30T08:27:03.485Z,101437.16
2022-07-30T08:29:31.723Z,101447.38
2022-07-30T08:31:59.933Z,101446.16
2022-07-30T08:34:28.809Z,101446.09
2022-07-30T08:36:56.805Z,101444.78
2022-07-30T08:39:26.102Z,101449.38
2022-07-30T08:41:54.098Z,101449.56
2022-07-30T08:44:22.633Z,101449.44
2022-07-30T08:46:53.070Z,101449.41
2022-07-30T08:49:21.103Z,101455.31
2022-07-30T08:51:49.295Z,101456.16
2022-07-30T08:54:17.594Z,101453.34
2022-07-30T08:56:49.516Z,101466.72
2022-07-30T08:59:18.822Z,101462.66
2022-07-30T09:01:46.813Z,101464.00
2022-07-30T09:04:15.412Z,101454.66
2022-07-30T09:06:43.353Z,101462.41
2022-07-30T09:09:11.351Z,101459.75
2022-07-30T09:11:39.278Z,101455.78
2022-07-30T09:14:12.627Z,101467.13
2022-07-30T09:16:41.315Z,101465.34
2022-07-30T09:19:14.673Z,101473.47
2022-07-30T09:21:42.963Z,101462.88
2022-07-30T09:24:12.563Z,101461.25
2022-07-30T09:26:57.514Z,101464.78
2022-07-30T09:29:28.103Z,101467.69
2022-07-30T09:31:57.601Z,101466.47
2022-07-30T09:34:27.594Z,101469.38
2022-07-30T09:36:55.969Z,101473.47
2022-07-30T09:39:31.075Z,101472.91
2022-07-30T09:41:59.778Z,101473.09
2022-07-30T09:44:30.877Z,101473.94
2022-07-30T09:46:59.353Z,101465.13
2022-07-30T09:49:29.663Z,101469.34
2022-07-30T09:51:58.052Z,101461.81
2022-07-30T09:54:26.935Z,101464.56
2022-07-30T09:57:25.972Z,101467.28
2022-07-30T09:59:59.728Z,101465.28
2022-07-30T10:02:33.104Z,101468.09
2022-07-30T10:05:13.919Z,101472.47
2022-07-30T10:07:48.858Z,101474.34
2022-07-30T10:10:21.307Z,101471.38
2022-07-30T10:12:49.971Z,101467.88
2022-07-30T10:15:20.762Z,101471.75
2022-07-30T10:17:49.645Z,101479.56
2022-07-30T10:20:18.161Z,101476.81
2022-07-30T10:22:48.045Z,101477.72
2022-07-30T10:25:20.761Z,101483.03
2022-07-30T10:27:51.453Z,101481.19
2022-07-30T10:30:29.366Z,101477.53
2022-07-30T10:32:58.690Z,101478.69
2022-07-30T10:35:34.768Z,101481.13
2022-07-30T10:38:13.962Z,101481.28
2022-07-30T10:40:49.082Z,101484.56
2022-07-30T10:43:34.694Z,101482.91
2022-07-30T10:46:20.152Z,101475.31
2022-07-30T10:48:51.204Z,101480.13
2022-07-30T10:51:25.488Z,101484.25
2022-07-30T10:54:02.552Z,101475.09
2022-07-30T10:56:30.534Z,101481.66
2022-07-30T10:59:00.670Z,101477.75
2022-07-30T11:02:10.748Z,101476.44
2022-07-30T11:04:40.694Z,101478.44
2022-07-30T11:07:31.438Z,101484.19
2022-07-30T11:10:05.951Z,101487.41
2022-07-30T11:12:56.803Z,101483.28
2022-07-30T11:15:24.999Z,101492.22
2022-07-30T11:18:13.107Z,101484.50
2022-07-30T11:20:48.723Z,101489.31
2022-07-30T11:23:39.971Z,101488.50
2022-07-30T11:26:14.346Z,101490.00
2022-07-30T11:28:44.500Z,101488.75
2022-07-30T11:31:54.981Z,101492.28
2022-07-30T11:34:29.860Z,101495.31
2022-07-30T11:37:18.496Z,101490.13
2022-07-30T11:40:10.914Z,101485.47
2022-07-30T11:42:40.976Z,101487.69
2022-07-30T11:45:26.900Z,101483.34
2022-07-30T11:47:56.586Z,101491.22
2022-07-30T11:50:26.189Z,101490.22
2022-07-30T11:52:57.488Z,101487.81
2022-07-30T11:55:27.919Z,101477.53
2022-07-30T11:57:56.321Z,101483.72
2022-07-30T12:00:24.591Z,101487.19
2022-07-30T12:02:52.712Z,101488.34
2022-07-30T12:05:28.475Z,101485.78
2022-07-30T12:07:59.796Z,101489.81
2022-07-30T12:10:27.997Z,101481.59
2022-07-30T12:13:08.189Z,101486.47
2022-07-30T12:15:38.262Z,101488.72
2022-07-30T12:18:25.207Z,101484.25
2022-07-30T12:20:59.285Z,101493.03
2022-07-30T12:23:29.258Z,101497.13
2022-07-30T12:25:58.135Z,101498.38
2022-07-30T12:28:28.381Z,101492.66
2022-07-30T12:30:57.038Z,101492.72
2022-07-30T12:33:25.783Z,101495.47
2022-07-30T12:35:55.234Z,101495.94
2022-07-30T12:38:25.083Z,101498.75
2022-07-30T12:40:56.904Z,101494.84
2022-07-30T12:43:43.872Z,101497.84
2022-07-30T12:46:14.833Z,101492.97
2022-07-30T12:49:21.458Z,101482.13
2022-07-30T12:51:57.581Z,101485.78
2022-07-30T12:54:28.770Z,101483.31
2022-07-30T12:57:03.323Z,101477.75
2022-07-30T12:59:32.410Z,101479.72
2022-07-30T13:02:01.281Z,101474.38
2022-07-30T13:04:29.485Z,101475.81
2022-07-30T13:07:11.605Z,101477.34
2022-07-30T13:09:40.332Z,101478.16
2022-07-30T13:12:13.176Z,101475.44
2022-07-30T13:14:41.110Z,101471.38
2022-07-30T13:17:09.788Z,101472.03
2022-07-30T13:19:37.806Z,101477.38
2022-07-30T13:22:05.729Z,101470.91
2022-07-30T13:24:34.183Z,101473.41
2022-07-30T13:27:02.291Z,101476.00
2022-07-30T13:29:31.873Z,101471.56
2022-07-30T13:31:59.782Z,101470.06
2022-07-30T13:34:27.958Z,101464.25
2022-07-30T13:36:55.924Z,101459.31
2022-07-30T13:39:23.972Z,101463.75
2022-07-30T13:41:52.881Z,101460.22
2022-07-30T13:44:20.832Z,101454.63
2022-07-30T13:46:50.160Z,101454.75
2022-07-30T13:49:18.164Z,101459.56
2022-07-30T13:51:46.158Z,101452.06
2022-07-30T13:54:15.378Z,101444.41
2022-07-30T13:56:43.558Z,101454.75
2022-07-30T13:59:11.834Z,101439.47
2022-07-30T14:01:39.835Z,101442.91
2022-07-30T14:04:09.185Z,101440.91
2022-07-30T14:06:37.119Z,101436.09
2022-07-30T14:09:05.337Z,101432.38
2022-07-30T14:11:33.495Z,101433.81
2022-07-30T14:14:01.451Z,101436.06
2022-07-30T14:16:44.606Z,101432.91
2022-07-30T14:19:23.543Z,101428.03
2022-07-30T14:21:52.689Z,101430.91
2022-07-30T14:24:20.807Z,101428.66
2022-07-30T14:26:48.974Z,101419.09
2022-07-30T14:29:17.054Z,101424.66
2022-07-30T14:31:45.151Z,101416.91
2022-07-30T14:34:14.554Z,101416.47
2022-07-30T14:36:43.735Z,101423.91
2022-07-30T14:39:11.863Z,101415.53
2022-07-30T14:41:39.819Z,101425.38
2022-07-30T14:44:12.101Z,101425.56
2022-07-30T14:46:52.016Z,101428.16
2022-07-30T14:49:22.706Z,101430.56
2022-07-30T14:51:52.044Z,101436.00
2022-07-30T14:54:20.022Z,101436.78
2022-07-30T14:56:48.298Z,101432.97
2022-07-30T14:59:16.856Z,101433.09
2022-07-30T15:01:44.998Z,101429.72
2022-07-30T15:04:13.006Z,101435.88
2022-07-30T15:06:43.149Z,101433.47
2022-07-30T15:09:11.416Z,101432.03
2022-07-30T15:12:07.355Z,101428.88
2022-07-30T15:14:28.357Z,101426.19
2022-07-30T15:16:59.494Z,101425.56
2022-07-30T15:19:31.837Z,101441.34
2022-07-30T15:22:02.968Z,101430.69
2022-07-30T15:24:31.753Z,101435.91
2022-07-30T15:26:59.728Z,101432.97
2022-07-30T15:29:30.111Z,101438.53
2022-07-30T15:32:00.238Z,101441.03
2022-07-30T15:34:34.009Z,101438.28
2022-07-30T15:37:03.909Z,101445.59
2022-07-30T15:39:33.865Z,101451.09
2022-07-30T15:42:06.143Z,101437.38
2022-07-30T15:44:34.770Z,101442.19
2022-07-30T15:47:02.723Z,101451.91
2022-07-30T15:49:30.758Z,101451.72
2022-07-30T15:52:00.146Z,101443.59
2022-07-30T15:54:29.624Z,101451.28
2022-07-30T15:57:00.963Z,101437.31
2022-07-30T15:59:30.107Z,101444.06
2022-07-30T16:01:58.375Z,101440.88
2022-07-30T16:04:31.739Z,101441.84
2022-07-30T16:07:00.623Z,101440.31
2022-07-30T16:09:30.436Z,101437.09
2022-07-30T16:11:58.616Z,101438.56
2022-07-30T16:14:27.081Z,101433.88
2022-07-30T16:16:55.035Z,101441.72
2022-07-30T16:19:23.034Z,101437.31
2022-07-30T16:21:51.050Z,101443.22
2022-07-30T16:24:19.267Z,101430.69
2022-07-30T16:26:48.651Z,101445.66
2022-07-30T16:29:17.893Z,101446.31
2022-07-30T16:31:45.894Z,101440.53
2022-07-30T16:34:14.038Z,101437.97
2022-07-30T16:36:41.969Z,101438.59
2022-07-30T16:39:09.981Z,101439.03
2022-07-30T16:41:38.103Z,101438.13
2022-07-30T16:44:07.689Z,101441.16
2022-07-30T16:46:37.023Z,101452.66
2022-07-30T16:49:05.191Z,101432.44
2022-07-30T16:51:33.359Z,101441.00
2022-07-30T16:54:01.403Z,101431.94
2022-07-30T16:56:29.381Z,101446.84
2022-07-30T16:58:57.305Z,101439.03
2022-07-30T17:01:26.798Z,101433.56
2022-07-30T17:03:54.822Z,101442.19
2022-07-30T17:06:22.738Z,101442.41
2022-07-30T17:08:50.699Z,101446.91
2022-07-30T17:11:46.339Z,101448.59
2022-07-30T17:14:07.518Z,101448.31
2022-07-30T17:16:36.883Z,101449.25
2022-07-30T17:19:09.442Z,101452.50
2022-07-30T17:21:38.170Z,101452.28
2022-07-30T17:24:11.112Z,101453.13
2022-07-30T17:26:41.813Z,101456.38
2022-07-30T17:29:13.885Z,101452.91
2022-07-30T17:31:45.086Z,101462.09
2022-07-30T17:34:14.752Z,101464.09
2022-07-30T17:36:47.010Z,101465.38
2022-07-30T17:40:19.994Z,101461.19
2022-07-30T17:42:09.873Z,101468.84
2022-07-30T17:44:38.210Z,101472.28
2022-07-30T17:47:12.404Z,101472.47
2022-07-30T17:49:42.705Z,101473.34
2022-07-30T17:52:10.681Z,101468.00
2022-07-30T17:54:38.626Z,101466.72
2022-07-30T17:57:07.220Z,101467.31
2022-07-30T17:59:35.178Z,101466.59
2022-07-30T18:02:04.475Z,101469.19
2022-07-30T18:04:34.979Z,101478.19
2022-07-30T18:07:03.040Z,101475.19
2022-07-30T18:09:38.881Z,101485.25
2022-07-30T18:12:08.260Z,101485.94
2022-07-30T18:14:37.130Z,101479.91
2022-07-30T18:17:05.272Z,101483.25
2022-07-30T18:19:34.697Z,101486.63
2022-07-30T18:22:03.177Z,101484.69
2022-07-30T18:24:32.588Z,101481.84
2022-07-30T18:27:00.596Z,101482.78
2022-07-30T18:29:28.525Z,101475.78
2022-07-30T18:31:56.892Z,101480.31
2022-07-30T18:34:24.840Z,101486.09
2022-07-30T18:36:54.186Z,101485.94
2022-07-30T18:39:22.286Z,101488.13
2022-07-30T18:41:50.209Z,101478.75
2022-07-30T18:44:18.210Z,101487.94
2022-07-30T18:46:46.277Z,101501.34
2022-07-30T18:49:35.513Z,101513.50
2022-07-30T18:52:04.564Z,101509.94
2022-07-30T18:54:32.805Z,101513.84
2022-07-30T18:57:00.810Z,101518.31
2022-07-30T18:59:28.749Z,101519.59
2022-07-30T19:01:57.040Z,101526.81
2022-07-30T19:04:25.142Z,101518.47
2022-07-30T19:06:53.114Z,101518.47
2022-07-30T19:09:22.473Z,101520.84
2022-07-30T19:11:50.484Z,101515.13
2022-07-30T19:14:18.574Z,101522.03
2022-07-30T19:16:47.317Z,101527.78
2022-07-30T19:19:15.773Z,101515.69
2022-07-30T19:21:43.947Z,101529.34
2022-07-30T19:24:12.473Z,101531.47
2022-07-30T19:26:41.870Z,101531.22
2022-07-30T19:29:09.839Z,101536.16
2022-07-30T19:31:37.844Z,101527.03
2022-07-30T19:34:07.162Z,101528.25
2022-07-30T19:36:35.369Z,101535.31
2022-07-30T19:39:07.413Z,101534.56
2022-07-30T19:41:40.785Z,101535.84
2022-07-30T19:44:12.086Z,101544.97
2022-07-30T19:46:41.443Z,101543.56
2022-07-30T19:49:09.780Z,101541.00
2022-07-30T19:52:17.466Z,101547.31
2022-07-30T19:54:27.128Z,101547.19
2022-07-30T19:56:55.042Z,101552.66
2022-07-30T19:59:59.388Z,101556.91
2022-07-30T20:02:13.764Z,101558.00
2022-07-30T20:04:41.790Z,101556.22
2022-07-30T20:07:12.062Z,101555.84
2022-07-30T20:09:42.870Z,101561.66
2022-07-30T20:12:11.303Z,101564.19
2022-07-30T20:14:41.768Z,101564.13
2022-07-30T20:17:11.656Z,101566.63
2022-07-30T20:19:47.935Z,101567.53
2022-07-30T20:22:17.028Z,101570.59
2022-07-30T20:24:45.365Z,101560.88
2022-07-30T20:27:37.252Z,101573.03
2022-07-30T20:30:02.812Z,101571.88
2022-07-30T20:32:30.798Z,101576.75
2022-07-30T20:34:58.753Z,101572.28
2022-07-30T20:37:27.534Z,101578.34
2022-07-30T20:39:56.025Z,101579.66
2022-07-30T20:42:24.631Z,101576.44
2022-07-30T20:44:54.427Z,101570.06
2022-07-30T20:47:34.193Z,101584.72
2022-07-30T20:50:03.172Z,101582.41
2022-07-30T20:52:31.133Z,101588.38
2022-07-30T20:54:59.099Z,101579.59
2022-07-30T20:57:56.010Z,101578.84
2022-07-30T21:00:18.651Z,101583.47
2022-07-30T21:02:49.593Z,101597.63
2022-07-30T21:05:19.815Z,101595.28
2022-07-30T21:07:48.223Z,101592.22
2022-07-30T21:10:23.469Z,101585.84
2022-07-30T21:12:53.366Z,101586.91
2022-07-30T21:15:26.635Z,101595.19
2022-07-30T21:18:02.140Z,101585.84
2022-07-30T21:20:31.854Z,101585.28
2022-07-30T21:23:05.329Z,101586.72
2022-07-30T21:25:33.650Z,101596.84
2022-07-30T21:28:02.714Z,101592.19
2022-07-30T21:30:32.733Z,101591.69
2022-07-30T21:33:02.301Z,101588.56
2022-07-30T21:35:31.712Z,101592.75
2022-07-30T21:38:00.338Z,101591.53
2022-07-30T21:40:29.457Z,101589.47
2022-07-30T21:42:57.530Z,101594.22
2022-07-30T21:45:37.848Z,101587.72
2022-07-30T21:48:10.882Z,101591.69
2022-07-30T21:50:57.689Z,101592.56
2022-07-30T21:53:30.005Z,101590.63
2022-07-30T21:56:13.985Z,101591.69
2022-07-30T21:58:42.521Z,101584.31
2022-07-30T22:01:17.912Z,101585.50
2022-07-30T22:04:02.744Z,101585.84
2022-07-30T22:06:33.859Z,101583.78
2022-07-30T22:09:03.070Z,101573.66
2022-07-30T22:11:42.192Z,101576.94
2022-07-30T22:14:11.090Z,101577.44
2022-07-30T22:16:39.329Z,101582.22
2022-07-30T22:19:15.667Z,101576.19
2022-07-30T22:21:46.693Z,101566.56
2022-07-30T22:27:11.074Z,101568.34
2022-07-30T22:29:43.390Z,101570.03
2022-07-30T22:32:11.749Z,101569.16
2022-07-30T22:34:41.159Z,101569.47
2022-07-30T22:37:12.788Z,101577.25
2022-07-30T22:39:51.062Z,101575.78
2022-07-30T22:42:23.967Z,101581.59
2022-07-30T22:44:52.604Z,101581.97
2022-07-30T22:47:50.398Z,101571.22
2022-07-30T22:50:11.577Z,101570.22
2022-07-30T22:52:40.131Z,101574.00
2022-07-30T22:55:21.957Z,101578.38
2022-07-30T22:57:50.574Z,101573.59
2022-07-30T23:00:27.974Z,101573.28
2022-07-30T23:02:56.600Z,101573.16
2022-07-30T23:05:26.368Z,101568.88
2022-07-30T23:07:55.382Z,101569.19
2022-07-30T23:10:25.566Z,101569.56
2022-07-30T23:12:28.648Z,101564.63
2022-07-30T23:12:56.081Z,101567.50
2022-07-30T23:15:24.601Z,101561.03
2022-07-30T23:17:53.259Z,101559.31
2022-07-30T23:20:22.301Z,101555.91
2022-07-30T23:22:52.093Z,101549.75
2022-07-30T23:25:20.055Z,101562.56
2022-07-30T23:27:48.014Z,101564.22
2022-07-30T23:30:15.998Z,101555.03
2022-07-30T23:32:43.962Z,101556.03
2022-07-30T23:35:12.106Z,101546.44
2022-07-30T23:37:48.288Z,101553.56
2022-07-30T23:40:19.501Z,101552.19
2022-07-30T23:42:47.770Z,101550.38
2022-07-30T23:45:15.772Z,101547.81
2022-07-30T23:48:00.653Z,101546.41
2022-07-30T23:50:30.352Z,101544.75
2022-07-30T23:52:58.378Z,101542.69
2022-07-30T23:55:28.163Z,101540.88
2022-07-30T23:57:56.235Z,101536.66
